Four Marks, United Kingdom
Current Conditions -  °F | °C
As of 9:50 PM on Thursday 27 Nov 2014 (Local Time) from EGVO Reporting Station
Light Fog Light Fog  
Wind Chill:   Ceiling: Unl
Heat Index:   Visibility: 3mi
Dew Point:   Wind: 6mph
Humidity: 93%   Direction: 100°E
Pressure: 29.53"   Gusts: NA
Location:  51.11°N, 1.05°W
Report Text: EGVO 272150Z 10005KT 5000 0600SW BCFG FEW000 SCT003 07/06 Q1000 RED TEMPO SCT001 RED
Loading
Personal Weather Stations






























Interactive Weather Map New forecast layout! Learn more

10-Day Weather Forecast

Advertisements
Track Severe Weather on mobile